Previous Day
Next Day
Current Day
SHEF ID: LVLO2 Skeleton Creek near Lovell, OK
STATION TYPE:
Regulating: Stage = 38.00, Flow = 12490
PRECIP STAGE RIV-FLOW BAT-LOAD
in ft cfs volt
Ccp-Rev Ccp-Rev Ccp-Rev Ccp-Rev
(US/Central)
07/31 00:00 0.00 9.10 27 12.40
07/31 01:00 0.00 9.09 26 12.38
07/31 02:00 0.00 9.08 26 12.37
07/31 03:00 0.00 9.12 28 12.37
07/31 04:00 0.04 9.06 25 12.37
07/31 05:00 0.02 9.14 28 12.36
07/31 06:00 0.08 9.16 29 12.35
07/31 07:00 0.18 9.24 32 12.34
07/31 08:00 0.14 9.35 37 12.32
07/31 09:00 0.06 9.43 41 12.31
07/31 10:00 0.00 9.50 44 12.48
07/31 11:00 0.00 9.50 44 12.92
07/31 12:00 0.00 9.46 42 13.10
07/31 13:00 0.00 9.49 44 13.24
07/31 14:00 0.00 9.48 43 13.19
07/31 15:00 0.00 9.46 42 13.09
07/31 16:00 0.00 9.44 41 13.05
07/31 17:00 0.00 9.43 41 13.04
07/31 18:00 0.00 9.45 42 12.99
07/31 19:00 0.00 9.51 45 12.97
07/31 20:00 0.00 9.61 50 12.91
07/31 21:00 0.00 9.69 54 12.67
07/31 22:00 0.00 9.72 56 12.51
07/31 23:00 0.00 9.75 58 12.44